Time;durP1;ratioP1;P1;durP2;ratioP2;P2;SDS_P1;SDS_P2;PMS_P1;PMS_P2;Temp;Humidity;BMP_temperature;BMP_pressure;BME280_temperature;BME280_humidity;BME280_pressure;Samples;Min_cycle;Max_cycle;Signal;HPM_P1;HPM_P2
2023/09/14 04:06:13;;;;;;;0.30;0.20;;;18.10;99.90;;;;;;5359013;23;20522;-65
2023/09/14 04:08:39;;;;;;;0.30;0.30;;;18.10;99.90;;;;;;4956306;28;20415;-65
2023/09/14 04:11:04;;;;;;;0.30;0.30;;;18.10;99.90;;;;;;4957079;29;20726;-65
2023/09/14 04:13:34;;;;;;;0.30;0.30;;;18.10;99.90;;;;;;4957017;29;20234;-64
2023/09/14 04:16:03;;;;;;;0.30;0.30;;;18.20;99.90;;;;;;4944857;29;20241;-65
2023/09/14 04:18:33;;;;;;;0.30;0.30;;;18.20;99.90;;;;;;4938229;29;20380;-65
2023/09/14 04:20:58;;;;;;;0.30;0.30;;;18.20;99.90;;;;;;4938364;29;20424;-65
2023/09/14 04:23:24;;;;;;;0.30;0.30;;;18.20;99.90;;;;;;4936982;29;20391;-65
2023/09/14 04:25:51;;;;;;;0.40;0.40;;;18.20;99.90;;;;;;4937554;29;20197;-65
2023/09/14 04:28:18;;;;;;;0.30;0.20;;;18.20;99.90;;;;;;4938292;29;20637;-65
2023/09/14 04:30:51;;;;;;;0.30;0.30;;;18.20;99.90;;;;;;4920944;29;20938;-65
2023/09/14 04:33:18;;;;;;;0.30;0.30;;;18.20;99.90;;;;;;4938088;29;20519;-64
2023/09/14 04:35:44;;;;;;;0.30;0.20;;;18.10;99.90;;;;;;4936620;29;20438;-65
2023/09/14 04:38:10;;;;;;;0.30;0.30;;;18.10;99.90;;;;;;4938037;29;20454;-66
2023/09/14 04:40:47;;;;;;;0.30;0.20;;;18.10;99.90;;;;;;4937786;29;20404;-65
2023/09/14 04:43:14;;;;;;;0.30;0.30;;;18.20;99.90;;;;;;4937968;29;20515;-65
2023/09/14 04:45:40;;;;;;;0.30;0.20;;;18.10;99.90;;;;;;4937430;29;20500;-65
2023/09/14 04:48:06;;;;;;;0.30;0.30;;;18.10;99.90;;;;;;4937814;29;20423;-65
2023/09/14 04:50:32;;;;;;;0.30;0.30;;;18.00;99.90;;;;;;4937773;29;20180;-65
2023/09/14 04:52:58;;;;;;;0.30;0.30;;;18.10;99.90;;;;;;4937923;29;20468;-64
2023/09/14 04:55:24;;;;;;;0.30;0.20;;;18.10;99.90;;;;;;4937199;29;20464;-65
2023/09/14 04:57:50;;;;;;;0.30;0.30;;;18.00;99.90;;;;;;4920374;29;20426;-66
2023/09/14 05:00:16;;;;;;;0.30;0.20;;;18.00;99.90;;;;;;4937483;29;20374;-65
2023/09/14 05:02:42;;;;;;;0.30;0.30;;;18.10;99.90;;;;;;4937427;29;20663;-65
2023/09/14 05:05:10;;;;;;;0.30;0.20;;;18.10;99.90;;;;;;4936893;29;20685;-64
2023/09/14 05:07:38;;;;;;;0.30;0.20;;;18.00;99.90;;;;;;4937114;29;20185;-65
2023/09/14 05:10:04;;;;;;;0.30;0.20;;;18.00;99.90;;;;;;4937448;29;20793;-65
2023/09/14 05:12:30;;;;;;;0.30;0.30;;;18.00;99.90;;;;;;4937419;29;20811;-65
2023/09/14 05:14:55;;;;;;;0.30;0.30;;;18.00;99.90;;;;;;4936744;29;20604;-64
2023/09/14 05:17:21;;;;;;;0.30;0.30;;;18.00;99.90;;;;;;4937047;29;20176;-64
2023/09/14 05:19:46;;;;;;;0.30;0.20;;;18.00;99.90;;;;;;4936885;29;20236;-64
2023/09/14 05:22:12;;;;;;;0.30;0.30;;;18.00;99.90;;;;;;4936792;29;20174;-64
2023/09/14 05:24:39;;;;;;;0.30;0.30;;;18.00;99.90;;;;;;4950281;28;20686;-65
2023/09/14 05:27:04;;;;;;;0.30;0.20;;;18.00;99.90;;;;;;4936851;29;20188;-65
2023/09/14 05:29:30;;;;;;;0.30;0.30;;;17.90;99.90;;;;;;4936832;29;20469;-71
2023/09/14 05:31:56;;;;;;;0.53;0.53;;;17.90;99.90;;;;;;4936701;29;20180;-69
2023/09/14 05:34:22;;;;;;;0.30;0.20;;;17.80;99.90;;;;;;4936533;29;20186;-72
2023/09/14 05:36:49;;;;;;;0.30;0.30;;;17.80;99.90;;;;;;4951381;29;20524;-69
2023/09/14 05:39:14;;;;;;;0.30;0.30;;;17.70;99.90;;;;;;4949257;29;20760;-70
2023/09/14 05:41:43;;;;;;;0.30;0.20;;;17.60;99.90;;;;;;4938744;29;20420;-71
2023/09/14 05:44:10;;;;;;;0.30;0.27;;;17.60;99.90;;;;;;4940435;29;20188;-74
2023/09/14 05:46:36;;;;;;;0.30;0.30;;;17.60;99.90;;;;;;4936537;29;20447;-70
2023/09/14 05:49:02;;;;;;;0.30;0.20;;;17.60;99.90;;;;;;4951401;29;20474;-69
2023/09/14 05:51:28;;;;;;;0.30;0.30;;;17.70;99.90;;;;;;4936469;29;20426;-69
2023/09/14 05:53:54;;;;;;;0.30;0.30;;;17.60;99.90;;;;;;4940852;29;20495;-70
2023/09/14 05:56:20;;;;;;;0.30;0.20;;;17.50;99.90;;;;;;4944024;28;20538;-70
2023/09/14 05:58:45;;;;;;;0.30;0.30;;;17.50;99.90;;;;;;4935927;29;20780;-72
2023/09/14 06:01:11;;;;;;;0.30;0.30;;;17.40;99.90;;;;;;4919456;29;20177;-71
2023/09/14 06:03:37;;;;;;;0.30;0.30;;;17.40;99.90;;;;;;4931588;29;20184;-72
2023/09/14 06:06:03;;;;;;;0.40;0.40;;;17.30;99.90;;;;;;4935609;29;20203;-73
2023/09/14 06:08:28;;;;;;;0.30;0.30;;;17.20;99.90;;;;;;4936203;29;20259;-71
2023/09/14 06:10:54;;;;;;;0.30;0.30;;;17.20;99.90;;;;;;4919041;29;20184;-70
2023/09/14 06:13:20;;;;;;;0.30;0.30;;;17.10;99.90;;;;;;4916659;29;20203;-72
2023/09/14 06:15:46;;;;;;;0.30;0.20;;;17.10;99.90;;;;;;4935287;29;20223;-72
2023/09/14 06:18:12;;;;;;;0.30;0.27;;;17.10;99.90;;;;;;4935769;29;20196;-70
2023/09/14 06:20:38;;;;;;;0.50;0.50;;;17.10;99.90;;;;;;4935711;29;20403;-74
2023/09/14 06:23:03;;;;;;;0.30;0.20;;;17.20;99.90;;;;;;4935870;29;20628;-70
2023/09/14 06:25:29;;;;;;;0.30;0.30;;;17.20;99.90;;;;;;4935262;29;20204;-73
2023/09/14 06:27:55;;;;;;;0.30;0.20;;;17.30;99.90;;;;;;4935915;29;20222;-71
2023/09/14 06:30:20;;;;;;;0.30;0.30;;;17.50;99.90;;;;;;4935446;29;20188;-69
2023/09/14 06:32:46;;;;;;;0.30;0.30;;;17.50;99.90;;;;;;4934695;29;20236;-69
2023/09/14 06:35:11;;;;;;;0.30;0.30;;;17.50;99.90;;;;;;4935194;29;20197;-67
2023/09/14 06:37:37;;;;;;;0.30;0.30;;;17.50;99.90;;;;;;4935792;29;20180;-69
2023/09/14 06:40:06;;;;;;;0.30;0.30;;;17.40;99.90;;;;;;4935474;29;20659;-61
2023/09/14 06:42:32;;;;;;;0.30;0.20;;;17.40;99.90;;;;;;4917768;29;20190;-70
2023/09/14 06:44:58;;;;;;;0.30;0.30;;;17.40;99.90;;;;;;4927390;29;20955;-65
2023/09/14 06:47:23;;;;;;;0.30;0.30;;;17.50;99.90;;;;;;4918500;29;20184;-64
2023/09/14 06:49:49;;;;;;;0.30;0.20;;;17.60;99.90;;;;;;4934898;29;20185;-65
2023/09/14 06:52:14;;;;;;;0.30;0.30;;;17.70;99.90;;;;;;4935612;29;20187;-63
2023/09/14 06:54:40;;;;;;;0.30;0.30;;;17.70;99.90;;;;;;4935121;29;20181;-66
2023/09/14 06:57:05;;;;;;;0.40;0.40;;;17.70;99.90;;;;;;4935049;29;20538;-69
2023/09/14 06:59:31;;;;;;;0.30;0.27;;;17.70;99.90;;;;;;4922524;29;20186;-68
2023/09/14 07:01:56;;;;;;;0.40;0.40;;;17.80;99.90;;;;;;4934614;29;20185;-67
2023/09/14 07:04:22;;;;;;;0.30;0.20;;;17.90;99.90;;;;;;4934985;29;20210;-67
2023/09/14 07:06:49;;;;;;;0.30;0.30;;;18.00;99.90;;;;;;4935256;29;20248;-64
2023/09/14 07:09:15;;;;;;;0.30;0.20;;;18.10;99.90;;;;;;4935339;29;20177;-70
2023/09/14 07:11:40;;;;;;;0.30;0.30;;;18.20;99.90;;;;;;4928002;29;20436;-65
2023/09/14 07:14:06;;;;;;;0.30;0.30;;;18.20;99.90;;;;;;4935144;29;20291;-63
2023/09/14 07:16:31;;;;;;;0.30;0.20;;;18.40;99.90;;;;;;4934112;29;20201;-65
2023/09/14 07:18:59;;;;;;;0.30;0.30;;;18.50;99.90;;;;;;4934640;29;20625;-69
2023/09/14 07:21:26;;;;;;;0.30;0.30;;;18.60;99.90;;;;;;4934967;29;20597;-63
2023/09/14 07:23:52;;;;;;;0.60;0.57;;;18.70;99.90;;;;;;4934968;29;20407;-66
2023/09/14 07:26:18;;;;;;;0.30;0.20;;;18.80;99.90;;;;;;4934954;29;20448;-68
2023/09/14 07:28:43;;;;;;;0.30;0.20;;;18.80;99.90;;;;;;4935166;29;20423;-65
2023/09/14 07:31:09;;;;;;;0.37;0.37;;;18.90;99.90;;;;;;4931301;29;20196;-67
2023/09/14 07:33:35;;;;;;;0.30;0.30;;;19.00;99.90;;;;;;4935587;29;20610;-68
2023/09/14 07:36:00;;;;;;;0.30;0.30;;;19.00;99.90;;;;;;4934265;29;20200;-67
2023/09/14 07:38:26;;;;;;;0.30;0.20;;;19.10;99.90;;;;;;4935536;29;20174;-68
2023/09/14 07:40:51;;;;;;;0.30;0.20;;;19.20;99.90;;;;;;4935106;29;20225;-67
2023/09/14 07:43:17;;;;;;;0.30;0.30;;;19.30;99.90;;;;;;4935885;29;20213;-65
2023/09/14 07:45:43;;;;;;;0.30;0.20;;;19.40;99.90;;;;;;4937270;29;20203;-67
2023/09/14 07:48:09;;;;;;;0.40;0.40;;;19.50;99.90;;;;;;4938425;29;20580;-65
2023/09/14 07:50:36;;;;;;;0.30;0.30;;;19.50;99.90;;;;;;4938802;29;20456;-69
2023/09/14 07:53:03;;;;;;;0.30;0.20;;;19.50;99.90;;;;;;4936261;29;20539;-70
2023/09/14 07:55:29;;;;;;;0.30;0.30;;;19.60;99.90;;;;;;4935921;29;20412;-68
2023/09/14 07:57:55;;;;;;;0.70;0.40;;;19.50;99.90;;;;;;4937825;29;20388;-68
2023/09/14 08:00:20;;;;;;;0.30;0.30;;;19.50;99.90;;;;;;4921125;29;20440;-69
2023/09/14 08:02:46;;;;;;;0.30;0.30;;;19.50;99.90;;;;;;4937796;29;20256;-67
2023/09/14 08:05:12;;;;;;;0.33;0.30;;;19.50;99.90;;;;;;4939213;29;20194;-68
2023/09/14 08:07:37;;;;;;;0.30;0.20;;;19.40;99.90;;;;;;4934517;29;20665;-66
2023/09/14 08:10:03;;;;;;;0.30;0.20;;;19.50;99.90;;;;;;4938485;29;20178;-64
2023/09/14 08:12:29;;;;;;;0.30;0.20;;;19.60;99.90;;;;;;4937865;29;20198;-67
2023/09/14 08:14:54;;;;;;;0.30;0.20;;;19.60;99.90;;;;;;4937964;29;20404;-69
2023/09/14 08:17:20;;;;;;;0.30;0.20;;;19.70;99.90;;;;;;4937963;29;20169;-69
2023/09/14 08:19:46;;;;;;;0.30;0.20;;;19.80;99.90;;;;;;4935538;29;20675;-67
2023/09/14 08:22:11;;;;;;;0.40;0.40;;;19.90;99.90;;;;;;4935187;29;20185;-62
2023/09/14 08:24:37;;;;;;;0.30;0.20;;;20.00;99.90;;;;;;4936603;29;20197;-66
2023/09/14 08:27:03;;;;;;;0.30;0.20;;;19.90;99.90;;;;;;4948620;28;20171;-66
2023/09/14 08:29:30;;;;;;;0.30;0.30;;;20.00;99.90;;;;;;4937405;29;20552;-68
2023/09/14 08:31:55;;;;;;;0.30;0.20;;;20.00;99.90;;;;;;4937882;29;20261;-64
2023/09/14 08:34:21;;;;;;;0.30;0.20;;;20.00;99.90;;;;;;4937054;29;20595;-68
2023/09/14 08:36:46;;;;;;;0.30;0.20;;;20.00;99.90;;;;;;4937907;29;20187;-66
2023/09/14 08:39:12;;;;;;;0.30;0.30;;;20.10;99.90;;;;;;4937821;29;20174;-66
2023/09/14 08:41:41;;;;;;;0.30;0.20;;;20.20;99.90;;;;;;4937938;29;20638;-64
2023/09/14 08:44:07;;;;;;;0.30;0.20;;;20.40;99.90;;;;;;4937038;29;20188;-70
2023/09/14 08:46:37;;;;;;;0.30;0.30;;;20.40;99.90;;;;;;4936239;29;20446;-64
2023/09/14 08:49:05;;;;;;;0.30;0.20;;;20.30;99.90;;;;;;4937430;29;20393;-68
2023/09/14 08:51:33;;;;;;;0.30;0.20;;;20.40;99.90;;;;;;4937863;29;20377;-65
2023/09/14 08:53:59;;;;;;;0.30;0.20;;;20.30;99.90;;;;;;4950848;28;20491;-69
2023/09/14 08:56:26;;;;;;;0.30;0.30;;;20.30;99.90;;;;;;4937486;29;20417;-63
2023/09/14 08:58:54;;;;;;;0.30;0.30;;;20.20;99.90;;;;;;4937215;29;20804;-65
2023/09/14 09:01:19;;;;;;;0.30;0.20;;;20.20;99.90;;;;;;4936705;29;20484;-68
2023/09/14 09:03:45;;;;;;;0.30;0.20;;;20.30;99.90;;;;;;4936666;29;20512;-69
2023/09/14 09:06:11;;;;;;;0.30;0.30;;;20.40;99.90;;;;;;4936822;29;20223;-68
2023/09/14 09:08:37;;;;;;;0.30;0.30;;;20.30;99.90;;;;;;4937023;29;20415;-68
2023/09/14 09:11:04;;;;;;;0.30;0.20;;;20.30;99.90;;;;;;4937172;29;20942;-65
2023/09/14 09:13:34;;;;;;;0.30;0.30;;;20.20;99.90;;;;;;4937059;29;20449;-69
2023/09/14 09:16:00;;;;;;;0.30;0.20;;;20.00;99.90;;;;;;4936605;29;20415;-67
2023/09/14 09:18:26;;;;;;;0.50;0.40;;;20.00;99.90;;;;;;4936234;29;20454;-65
2023/09/14 09:20:52;;;;;;;0.30;0.20;;;20.20;99.90;;;;;;4937071;29;20166;-67
2023/09/14 09:23:20;;;;;;;0.30;0.30;;;20.30;99.90;;;;;;4936353;29;20519;-68
2023/09/14 09:25:52;;;;;;;0.50;0.50;;;20.40;99.90;;;;;;4935988;29;20241;-68
2023/09/14 09:28:18;;;;;;;0.30;0.20;;;20.40;99.90;;;;;;4936395;29;20460;-65
2023/09/14 09:30:44;;;;;;;0.30;0.20;;;20.30;99.90;;;;;;4937055;29;20782;-69
2023/09/14 09:33:10;;;;;;;0.30;0.30;;;20.40;99.90;;;;;;4936779;29;20201;-65
2023/09/14 09:35:36;;;;;;;0.30;0.30;;;20.40;99.90;;;;;;4936299;29;20778;-69
2023/09/14 09:38:13;;;;;;;0.30;0.20;;;20.50;99.90;;;;;;4936553;29;20420;-67
2023/09/14 09:40:44;;;;;;;0.47;0.47;;;20.60;99.90;;;;;;4936070;29;20760;-68
2023/09/14 09:43:15;;;;;;;0.30;0.20;;;20.60;99.90;;;;;;4936407;29;20384;-65
2023/09/14 09:45:43;;;;;;;0.30;0.30;;;20.60;99.90;;;;;;4936038;29;20426;-69
2023/09/14 09:48:10;;;;;;;2.10;0.93;;;20.70;99.90;;;;;;4936662;29;20423;-65
2023/09/14 09:50:36;;;;;;;0.30;0.20;;;20.70;99.90;;;;;;4936429;29;20557;-70
2023/09/14 09:53:02;;;;;;;0.30;0.20;;;20.80;99.90;;;;;;4919289;29;20544;-65
2023/09/14 09:55:29;;;;;;;0.30;0.30;;;20.60;99.90;;;;;;4935770;29;20194;-69
2023/09/14 09:57:58;;;;;;;0.30;0.20;;;20.50;99.90;;;;;;4936482;29;20773;-65
2023/09/14 10:00:29;;;;;;;0.30;0.30;;;20.40;99.90;;;;;;4919094;29;20478;-65
2023/09/14 10:02:55;;;;;;;0.30;0.20;;;20.40;99.90;;;;;;4936222;29;20969;-65
2023/09/14 10:05:31;;;;;;;0.30;0.20;;;20.30;99.90;;;;;;4934618;29;20507;-66
2023/09/14 10:07:58;;;;;;;0.30;0.30;;;20.30;99.90;;;;;;4919225;29;20220;-64
2023/09/14 10:10:26;;;;;;;0.30;0.20;;;20.40;99.90;;;;;;4935839;29;20519;-68
2023/09/14 10:12:53;;;;;;;0.30;0.20;;;20.50;99.90;;;;;;4936017;29;20459;-64
2023/09/14 10:15:22;;;;;;;0.30;0.20;;;20.50;99.90;;;;;;4935293;29;20463;-69
2023/09/14 10:17:51;;;;;;;0.30;0.20;;;20.60;99.90;;;;;;4936258;29;20388;-67
2023/09/14 10:20:17;;;;;;;0.30;0.20;;;20.60;99.90;;;;;;4935875;29;20396;-67
2023/09/14 10:22:44;;;;;;;0.30;0.20;;;20.60;99.90;;;;;;4936055;29;20417;-67
2023/09/14 10:25:10;;;;;;;0.30;0.30;;;20.60;99.90;;;;;;4918371;29;20209;-65
2023/09/14 10:27:36;;;;;;;0.30;0.20;;;20.70;99.90;;;;;;4935907;29;20421;-70
2023/09/14 10:30:06;;;;;;;0.30;0.20;;;20.80;99.90;;;;;;4931868;29;20600;-65
2023/09/14 10:32:38;;;;;;;0.30;0.20;;;20.80;99.90;;;;;;4935785;29;20587;-67
2023/09/14 10:35:04;;;;;;;0.50;0.50;;;20.90;99.90;;;;;;4935270;29;20424;-66
2023/09/14 10:37:31;;;;;;;0.30;0.20;;;21.10;99.90;;;;;;4936235;29;20796;-66
2023/09/14 10:39:58;;;;;;;0.73;0.73;;;21.10;99.90;;;;;;4935935;29;20422;-68
2023/09/14 10:42:24;;;;;;;0.30;0.23;;;21.20;99.90;;;;;;4935369;29;20430;-64
2023/09/14 10:44:50;;;;;;;0.30;0.20;;;21.40;99.90;;;;;;4935180;29;20430;-64
2023/09/14 10:47:19;;;;;;;0.30;0.20;;;21.70;99.90;;;;;;4935193;29;20228;-69
2023/09/14 10:49:45;;;;;;;0.30;0.30;;;22.10;99.90;;;;;;4935456;29;20483;-64
2023/09/14 10:52:11;;;;;;;0.30;0.20;;;22.40;99.90;;;;;;4935147;29;20780;-71
2023/09/14 10:54:38;;;;;;;0.30;0.30;;;22.80;99.90;;;;;;4934827;29;20430;-63
2023/09/14 10:57:20;;;;;;;2.93;1.33;;;23.00;99.90;;;;;;4934560;29;20433;-63
2023/09/14 10:59:50;;;;;;;0.30;0.20;;;23.10;99.90;;;;;;4927579;29;20442;-60
2023/09/14 11:02:45;;;;;;;0.30;0.30;;;23.20;99.90;;;;;;4935696;29;20430;-62
2023/09/14 11:05:16;;;;;;;0.30;0.20;;;23.40;99.90;;;;;;4935447;29;20759;-62
2023/09/14 11:07:49;;;;;;;0.30;0.20;;;23.50;99.90;;;;;;4935511;29;20399;-61
2023/09/14 11:10:17;;;;;;;0.30;0.20;;;23.40;99.90;;;;;;4936114;29;20376;-61
2023/09/14 11:12:43;;;;;;;0.30;0.30;;;23.30;99.90;;;;;;4935598;29;20441;-60
2023/09/14 11:15:14;;;;;;;0.30;0.20;;;23.30;99.90;;;;;;4918157;29;20951;-63
2023/09/14 11:17:47;;;;;;;0.30;0.20;;;23.40;99.90;;;;;;4936855;29;20910;-61
2023/09/14 11:20:22;;;;;;;0.30;0.30;;;23.20;99.90;;;;;;4939478;29;20395;-62
2023/09/14 11:22:48;;;;;;;0.30;0.30;;;22.90;99.90;;;;;;4939365;29;20420;-61
2023/09/14 11:25:36;;;;;;;0.30;0.30;;;23.00;99.90;;;;;;4938792;29;20438;-61
2023/09/14 11:28:06;;;;;;;0.30;0.20;;;23.00;99.90;;;;;;4939335;29;20470;-61
2023/09/14 11:30:32;;;;;;;0.30;0.20;;;23.10;99.90;;;;;;4939080;29;20409;-60
2023/09/14 11:33:05;;;;;;;0.30;0.30;;;23.20;99.90;;;;;;4938850;29;20504;-62
2023/09/14 11:35:37;;;;;;;0.30;0.20;;;23.00;99.90;;;;;;4938001;29;20522;-62
2023/09/14 11:38:05;;;;;;;0.30;0.30;;;23.00;99.90;;;;;;4938752;29;20768;-60
2023/09/14 11:40:33;;;;;;;0.50;0.50;;;22.90;99.90;;;;;;4939065;29;20392;-62
2023/09/14 11:43:10;;;;;;;0.30;0.20;;;22.90;99.90;;;;;;4938803;29;20384;-63
2023/09/14 11:45:39;;;;;;;0.30;0.20;;;22.80;99.90;;;;;;4938358;29;20426;-60
2023/09/14 11:48:06;;;;;;;0.30;0.30;;;22.90;99.90;;;;;;4939415;29;20435;-62
2023/09/14 11:50:33;;;;;;;0.30;0.30;;;23.00;99.90;;;;;;4921456;29;20404;-61
2023/09/14 11:52:59;;;;;;;3.40;0.93;;;23.10;99.90;;;;;;4938468;29;20457;-60
2023/09/14 11:55:27;;;;;;;0.30;0.30;;;23.10;99.90;;;;;;4938077;29;20411;-61
2023/09/14 11:57:57;;;;;;;0.70;0.50;;;23.10;99.90;;;;;;4938400;29;20416;-62
2023/09/14 12:00:24;;;;;;;0.30;0.20;;;23.00;99.90;;;;;;4938418;29;20408;-62
2023/09/14 12:02:49;;;;;;;0.30;0.20;;;22.90;99.90;;;;;;4938510;29;20380;-65
2023/09/14 12:05:16;;;;;;;0.30;0.30;;;22.90;99.90;;;;;;4937435;29;20500;-63
2023/09/14 12:07:42;;;;;;;0.30;0.20;;;22.80;99.90;;;;;;4933351;29;20591;-62
2023/09/14 12:10:18;;;;;;;0.30;0.20;;;22.70;99.90;;;;;;4938298;29;20824;-62
2023/09/14 12:12:43;;;;;;;0.30;0.30;;;22.60;99.90;;;;;;4938072;29;20435;-64
2023/09/14 12:15:20;;;;;;;0.30;0.23;;;22.70;99.90;;;;;;4938055;29;20409;-61
2023/09/14 12:17:54;;;;;;;0.30;0.20;;;22.60;99.90;;;;;;4938337;29;20625;-63
2023/09/14 12:20:20;;;;;;;0.30;0.30;;;22.60;99.90;;;;;;4938250;29;20383;-66
2023/09/14 12:22:47;;;;;;;0.43;0.40;;;22.40;99.90;;;;;;4937563;29;20415;-62
2023/09/14 12:25:17;;;;;;;0.30;0.20;;;22.40;99.90;;;;;;4937656;29;20483;-61
2023/09/14 12:27:44;;;;;;;0.30;0.30;;;22.40;99.90;;;;;;4938331;29;20972;-59
2023/09/14 12:30:11;;;;;;;0.30;0.20;;;22.40;99.90;;;;;;4937070;29;20387;-61
2023/09/14 12:32:40;;;;;;;0.30;0.20;;;22.50;99.90;;;;;;4937425;29;20463;-60
2023/09/14 12:35:08;;;;;;;0.30;0.27;;;22.50;99.90;;;;;;4937539;29;20406;-62
2023/09/14 12:37:34;;;;;;;0.30;0.30;;;22.50;99.90;;;;;;4937675;29;20757;-60
2023/09/14 12:40:10;;;;;;;0.30;0.20;;;22.40;99.90;;;;;;4937886;29;20383;-60
2023/09/14 12:42:35;;;;;;;0.30;0.20;;;22.40;99.90;;;;;;4937583;29;20436;-60
2023/09/14 12:45:04;;;;;;;0.30;0.20;;;22.40;99.90;;;;;;4937359;29;20409;-60
2023/09/14 12:47:31;;;;;;;0.30;0.30;;;22.40;99.90;;;;;;4937755;29;20188;-65
2023/09/14 12:50:01;;;;;;;0.30;0.20;;;22.40;99.90;;;;;;4952337;29;20441;-65
2023/09/14 12:52:27;;;;;;;0.30;0.30;;;22.40;99.90;;;;;;4937439;29;20485;-67
2023/09/14 12:54:53;;;;;;;0.30;0.20;;;22.50;99.90;;;;;;4937119;29;20431;-69
2023/09/14 12:57:22;;;;;;;0.30;0.20;;;22.50;99.90;;;;;;4936261;29;20207;-65
2023/09/14 13:00:11;;;;;;;0.30;0.20;;;22.50;99.90;;;;;;4937266;29;20824;-65
2023/09/14 13:02:40;;;;;;;0.30;0.20;;;22.50;99.90;;;;;;4935958;29;20450;-64
2023/09/14 13:05:07;;;;;;;0.30;0.20;;;22.50;99.90;;;;;;4935577;29;20833;-66
2023/09/14 13:07:35;;;;;;;0.30;0.20;;;22.50;99.90;;;;;;4935880;29;20500;-64
2023/09/14 13:10:12;;;;;;;0.30;0.20;;;22.50;99.90;;;;;;4936148;29;20425;-68
2023/09/14 13:12:49;;;;;;;0.30;0.20;;;22.50;99.90;;;;;;4934493;29;20852;-65
2023/09/14 13:15:22;;;;;;;0.30;0.30;;;22.30;99.90;;;;;;4935579;29;20856;-68
2023/09/14 13:18:05;;;;;;;0.30;0.20;;;22.30;99.90;;;;;;4931147;29;20446;-67
2023/09/14 13:20:32;;;;;;;1.07;1.07;;;22.20;99.90;;;;;;4936924;29;20436;-66
2023/09/14 13:22:59;;;;;;;0.30;0.20;;;22.20;99.90;;;;;;4936502;29;20437;-66
2023/09/14 13:25:25;;;;;;;0.30;0.20;;;22.20;99.90;;;;;;4936008;29;20937;-68
2023/09/14 13:27:52;;;;;;;0.30;0.30;;;22.20;99.90;;;;;;4936483;29;20477;-66
2023/09/14 13:30:17;;;;;;;0.30;0.30;;;22.20;99.90;;;;;;4936776;29;20434;-66
2023/09/14 13:32:46;;;;;;;0.30;0.30;;;22.20;99.90;;;;;;4936631;29;20441;-66
2023/09/14 13:35:13;;;;;;;0.30;0.20;;;22.20;99.90;;;;;;4936514;29;20245;-67
2023/09/14 13:37:41;;;;;;;0.30;0.20;;;22.20;99.90;;;;;;4936600;29;20430;-67
2023/09/14 13:40:18;;;;;;;0.30;0.30;;;22.20;99.90;;;;;;4936510;29;20421;-67
2023/09/14 13:42:48;;;;;;;0.30;0.20;;;22.10;99.90;;;;;;4936126;29;20404;-67
2023/09/14 13:45:15;;;;;;;0.40;0.40;;;22.20;99.90;;;;;;4936170;29;20439;-68
2023/09/14 13:47:41;;;;;;;0.30;0.20;;;22.20;99.90;;;;;;4936312;29;20422;-67
2023/09/14 13:50:08;;;;;;;0.30;0.30;;;22.20;99.90;;;;;;4936235;29;20409;-68
2023/09/14 13:52:34;;;;;;;0.37;0.37;;;22.20;99.90;;;;;;4935820;29;20454;-67
2023/09/14 13:55:01;;;;;;;0.30;0.20;;;22.20;99.90;;;;;;4936325;29;20497;-68
2023/09/14 13:57:27;;;;;;;0.30;0.20;;;22.30;99.90;;;;;;4936392;29;20422;-67
2023/09/14 13:59:53;;;;;;;0.30;0.20;;;22.20;99.90;;;;;;4936296;29;20418;-68
2023/09/14 14:02:18;;;;;;;0.30;0.20;;;22.30;99.90;;;;;;4950748;29;20430;-70
2023/09/14 14:04:45;;;;;;;0.30;0.20;;;22.30;99.90;;;;;;4935634;29;20178;-67
2023/09/14 14:07:11;;;;;;;0.30;0.20;;;22.30;99.90;;;;;;4935615;29;20263;-69
2023/09/14 14:09:39;;;;;;;0.40;0.40;;;22.30;99.90;;;;;;4935963;29;20423;-68
2023/09/14 14:12:06;;;;;;;0.30;0.20;;;22.30;99.90;;;;;;4936049;29;20461;-69
2023/09/14 14:14:31;;;;;;;0.30;0.27;;;22.30;99.90;;;;;;4935722;29;20519;-67
2023/09/14 14:16:57;;;;;;;0.30;0.20;;;22.40;99.90;;;;;;4935970;29;20515;-68
2023/09/14 14:19:23;;;;;;;0.30;0.30;;;22.40;99.90;;;;;;4935926;29;20209;-67
2023/09/14 14:21:48;;;;;;;0.63;0.63;;;22.40;99.90;;;;;;4935860;29;20180;-68
2023/09/14 14:24:14;;;;;;;0.30;0.20;;;22.40;99.90;;;;;;4935956;29;20599;-68
2023/09/14 14:26:40;;;;;;;0.30;0.20;;;22.30;99.90;;;;;;4935571;29;20202;-70
2023/09/14 14:29:06;;;;;;;0.30;0.20;;;22.40;99.90;;;;;;4936320;29;20177;-67
2023/09/14 14:31:32;;;;;;;0.30;0.20;;;22.30;99.90;;;;;;4935849;29;20488;-69
2023/09/14 14:33:57;;;;;;;0.30;0.20;;;22.30;99.90;;;;;;4935347;29;20241;-69
2023/09/14 14:36:23;;;;;;;0.30;0.20;;;22.30;99.90;;;;;;4935550;29;20532;-68
2023/09/14 14:38:49;;;;;;;0.30;0.20;;;22.30;99.90;;;;;;4936478;29;20641;-73
2023/09/14 14:41:14;;;;;;;0.30;0.20;;;22.30;99.90;;;;;;4935908;29;20176;-69
2023/09/14 14:43:40;;;;;;;0.30;0.20;;;22.30;99.90;;;;;;4950412;29;20224;-70
2023/09/14 14:46:06;;;;;;;0.30;0.20;;;22.30;99.90;;;;;;4935426;29;20194;-69
2023/09/14 14:48:31;;;;;;;0.30;0.30;;;22.30;99.80;;;;;;4935664;29;20262;-69
2023/09/14 14:51:01;;;;;;;0.30;0.20;;;22.30;99.80;;;;;;4935652;29;20644;-68
2023/09/14 14:53:27;;;;;;;0.30;0.20;;;22.30;99.80;;;;;;4937464;29;20206;-71
2023/09/14 14:55:53;;;;;;;0.30;0.30;;;22.20;99.90;;;;;;4939410;29;20421;-70
2023/09/14 14:58:19;;;;;;;0.30;0.30;;;22.20;99.90;;;;;;4939426;29;20403;-69
2023/09/14 15:00:45;;;;;;;0.30;0.20;;;22.20;99.90;;;;;;4939807;29;20238;-69
2023/09/14 15:03:12;;;;;;;0.30;0.30;;;22.10;99.90;;;;;;4939110;29;20895;-70
2023/09/14 15:05:38;;;;;;;0.30;0.20;;;22.10;99.90;;;;;;4921922;29;20528;-69
2023/09/14 15:08:04;;;;;;;0.30;0.20;;;22.10;99.90;;;;;;4939190;29;20494;-68
2023/09/14 15:10:34;;;;;;;0.30;0.30;;;22.10;99.90;;;;;;4939496;29;20174;-69
2023/09/14 15:12:59;;;;;;;0.30;0.20;;;22.10;99.90;;;;;;4939065;29;20294;-67
2023/09/14 15:15:25;;;;;;;0.30;0.30;;;22.10;99.90;;;;;;4938245;29;20482;-68
2023/09/14 15:17:51;;;;;;;0.30;0.20;;;22.10;99.90;;;;;;4938713;29;20173;-67
2023/09/14 15:20:17;;;;;;;0.30;0.30;;;22.10;99.90;;;;;;4939596;29;20177;-70
2023/09/14 15:22:42;;;;;;;0.30;0.30;;;22.10;99.90;;;;;;4939237;29;20454;-66
2023/09/14 15:25:09;;;;;;;0.30;0.20;;;22.00;99.90;;;;;;4939019;29;20199;-66
2023/09/14 15:27:35;;;;;;;0.30;0.20;;;22.00;99.90;;;;;;4938911;29;20193;-69
2023/09/14 15:30:01;;;;;;;0.30;0.30;;;21.90;99.90;;;;;;4939331;29;20441;-68
2023/09/14 15:32:27;;;;;;;0.30;0.20;;;21.90;99.90;;;;;;4937918;29;20463;-68
2023/09/14 15:34:52;;;;;;;0.30;0.20;;;21.80;99.90;;;;;;4938604;29;20202;-69
2023/09/14 15:37:18;;;;;;;0.30;0.30;;;21.80;99.90;;;;;;4938945;29;20170;-68
2023/09/14 15:39:43;;;;;;;0.30;0.20;;;21.80;99.90;;;;;;4938975;29;20245;-69
2023/09/14 15:42:09;;;;;;;0.30;0.20;;;21.80;99.90;;;;;;4938936;29;20182;-69
2023/09/14 15:44:36;;;;;;;0.30;0.20;;;21.70;99.90;;;;;;4938266;29;20644;-68
2023/09/14 15:47:02;;;;;;;0.30;0.20;;;21.70;99.90;;;;;;4938524;29;20182;-68
2023/09/14 15:49:28;;;;;;;0.30;0.20;;;21.70;99.90;;;;;;4938508;29;20436;-68
2023/09/14 15:51:54;;;;;;;0.30;0.20;;;21.60;99.90;;;;;;4938679;29;20888;-70
2023/09/14 15:54:20;;;;;;;0.30;0.20;;;21.60;99.90;;;;;;4937874;29;20546;-70
2023/09/14 15:56:47;;;;;;;0.30;0.20;;;21.50;99.90;;;;;;4938440;29;20508;-71
2023/09/14 15:59:13;;;;;;;0.30;0.30;;;21.50;99.90;;;;;;4938044;29;20429;-71
2023/09/14 16:01:39;;;;;;;0.30;0.20;;;21.40;99.90;;;;;;4938012;29;20788;-71
2023/09/14 16:04:05;;;;;;;0.30;0.30;;;21.40;99.90;;;;;;4937679;29;20433;-71
2023/09/14 16:06:31;;;;;;;0.30;0.30;;;21.40;99.90;;;;;;4938322;29;21034;-74
2023/09/14 16:08:57;;;;;;;0.30;0.30;;;21.30;99.90;;;;;;4937891;29;20404;-74
2023/09/14 16:11:23;;;;;;;0.30;0.30;;;21.30;99.90;;;;;;4938001;29;20444;-74
2023/09/14 16:13:49;;;;;;;0.40;0.40;;;21.20;99.90;;;;;;4937396;29;20209;-71
2023/09/14 16:16:14;;;;;;;0.30;0.20;;;21.20;99.90;;;;;;4937809;29;20202;-72
2023/09/14 16:18:40;;;;;;;0.30;0.20;;;21.30;99.90;;;;;;4919915;29;20641;-72
2023/09/14 16:21:06;;;;;;;0.40;0.40;;;21.30;99.90;;;;;;4938316;29;20182;-74
2023/09/14 16:23:32;;;;;;;0.30;0.20;;;21.30;99.90;;;;;;4937640;29;20244;-71
2023/09/14 16:25:57;;;;;;;0.30;0.20;;;21.40;99.90;;;;;;4937565;29;20204;-71
2023/09/14 16:28:23;;;;;;;0.30;0.30;;;21.40;99.80;;;;;;4937739;29;20430;-70
2023/09/14 16:30:50;;;;;;;0.30;0.30;;;21.50;99.90;;;;;;4937417;29;20265;-70
2023/09/14 16:33:16;;;;;;;0.30;0.20;;;21.40;99.70;;;;;;4936968;29;20217;-70
2023/09/14 16:35:41;;;;;;;0.30;0.20;;;21.40;99.80;;;;;;4937418;29;20437;-72
2023/09/14 16:38:07;;;;;;;0.30;0.30;;;21.40;99.70;;;;;;4937411;29;20396;-66
2023/09/14 16:40:33;;;;;;;0.30;0.20;;;21.40;99.60;;;;;;4937626;29;20253;-67
2023/09/14 16:42:59;;;;;;;0.30;0.20;;;21.40;99.10;;;;;;4937200;29;20182;-67
2023/09/14 16:45:24;;;;;;;0.30;0.20;;;21.30;98.90;;;;;;4936647;29;20800;-68
2023/09/14 16:47:50;;;;;;;0.30;0.30;;;21.30;99.20;;;;;;4936909;29;20261;-68
2023/09/14 16:50:16;;;;;;;0.30;0.30;;;21.20;99.20;;;;;;4937411;29;20248;-70
2023/09/14 16:52:41;;;;;;;0.63;0.40;;;21.20;99.30;;;;;;4919999;29;22154;-69